Time;durP1;ratioP1;P1;durP2;ratioP2;P2;SDS_P1;SDS_P2;PMS_P1;PMS_P2;Temp;Humidity;BMP_temperature;BMP_pressure;BME280_temperature;BME280_humidity;BME280_pressure;Samples;Min_cycle;Max_cycle;Signal;HPM_P1;HPM_P2
2022/09/08 00:00:50;;;;;;;2.88;2.08;;;;;;;;;;7385728;19;20006;-68
2022/09/08 00:03:18;;;;;;;4.13;1.50;;;;;;;;;;7390677;19;20464;-69
2022/09/08 00:05:52;;;;;;;1.92;1.40;;;;;;;;;;7394136;19;20002;-69
2022/09/08 00:08:20;;;;;;;2.65;1.95;;;;;;;;;;7392219;19;20014;-69
2022/09/08 00:10:47;;;;;;;2.13;1.55;;;;;;;;;;7392577;19;19998;-69
2022/09/08 00:13:13;;;;;;;3.72;1.92;;;;;;;;;;7393218;19;20472;-69
2022/09/08 00:15:39;;;;;;;3.28;1.80;;;;;;;;;;7393395;19;20006;-69
2022/09/08 00:18:06;;;;;;;2.28;1.75;;;;;;;;;;7393281;19;20527;-67
2022/09/08 00:20:31;;;;;;;2.85;1.70;;;;;;;;;;7391513;19;20016;-69
2022/09/08 00:22:57;;;;;;;1.95;1.52;;;;;;;;;;7390387;19;20003;-70
2022/09/08 00:25:23;;;;;;;1.83;1.27;;;;;;;;;;7391930;19;20007;-69
2022/09/08 00:27:48;;;;;;;2.35;1.50;;;;;;;;;;7394162;19;20475;-68
2022/09/08 00:30:14;;;;;;;2.63;1.50;;;;;;;;;;7392965;19;19999;-69
2022/09/08 00:32:39;;;;;;;1.88;1.50;;;;;;;;;;7392861;19;20375;-69
2022/09/08 00:35:14;;;;;;;1.98;1.40;;;;;;;;;;7392275;19;20002;-68
2022/09/08 00:37:41;;;;;;;2.10;1.70;;;;;;;;;;7392655;19;20002;-69
2022/09/08 00:40:07;;;;;;;2.00;1.40;;;;;;;;;;7390093;19;20006;-69
2022/09/08 00:42:32;;;;;;;1.60;1.30;;;;;;;;;;7385302;19;20537;-69
2022/09/08 00:44:58;;;;;;;1.20;1.10;;;;;;;;;;7387230;19;20003;-68
2022/09/08 00:47:26;;;;;;;1.35;1.20;;;;;;;;;;7387709;19;20006;-68
2022/09/08 00:50:01;;;;;;;2.10;1.45;;;;;;;;;;7388027;19;20045;-68
2022/09/08 00:52:33;;;;;;;2.08;1.40;;;;;;;;;;7385413;19;20377;-68
2022/09/08 00:54:58;;;;;;;2.58;1.60;;;;;;;;;;7387720;19;20424;-69
2022/09/08 00:57:23;;;;;;;2.17;1.33;;;;;;;;;;7391910;19;19998;-69
2022/09/08 00:59:50;;;;;;;3.85;1.83;;;;;;;;;;7390240;19;20003;-67
2022/09/08 01:02:24;;;;;;;1.63;1.38;;;;;;;;;;7389532;19;20028;-69
2022/09/08 01:04:52;;;;;;;3.38;1.65;;;;;;;;;;7390941;19;20014;-67
2022/09/08 01:13:20;;;;;;;3.13;1.98;;;;;;;;;;7390165;19;20086;-69
2022/09/08 01:15:45;;;;;;;4.50;2.13;;;;;;;;;;7390742;19;20011;-69
2022/09/08 01:18:12;;;;;;;4.53;2.08;;;;;;;;;;7391387;19;20005;-69
2022/09/08 01:20:59;;;;;;;3.08;1.95;;;;;;;;;;7390460;19;20019;-69
2022/09/08 01:23:40;;;;;;;4.60;1.65;;;;;;;;;;7388515;19;20464;-69
2022/09/08 01:26:11;;;;;;;2.13;1.70;;;;;;;;;;7390884;19;20089;-69
2022/09/08 01:28:50;;;;;;;4.28;1.83;;;;;;;;;;7390915;19;20027;-70
2022/09/08 01:31:17;;;;;;;6.30;2.20;;;;;;;;;;7387839;19;20006;-68
2022/09/08 01:33:42;;;;;;;3.53;2.20;;;;;;;;;;7390521;19;20030;-68
2022/09/08 01:36:10;;;;;;;3.90;2.15;;;;;;;;;;7390393;19;20003;-69
2022/09/08 01:38:35;;;;;;;2.30;1.73;;;;;;;;;;7390175;19;20098;-71
2022/09/08 01:41:01;;;;;;;4.75;2.47;;;;;;;;;;7389990;19;20011;-68
2022/09/08 01:43:26;;;;;;;4.90;1.95;;;;;;;;;;7387750;19;19999;-69
2022/09/08 01:45:54;;;;;;;4.28;2.30;;;;;;;;;;7390256;19;19998;-71
2022/09/08 01:48:20;;;;;;;3.90;2.47;;;;;;;;;;7390392;19;20015;-71
2022/09/08 01:50:45;;;;;;;3.58;1.85;;;;;;;;;;7390577;19;20468;-70
2022/09/08 01:53:10;;;;;;;5.30;2.33;;;;;;;;;;7391066;19;20006;-70
2022/09/08 01:55:36;;;;;;;6.18;2.10;;;;;;;;;;7389833;19;20003;-70
2022/09/08 01:58:01;;;;;;;3.75;2.10;;;;;;;;;;7390199;19;20010;-70
2022/09/08 02:00:27;;;;;;;4.97;2.47;;;;;;;;;;7389679;19;20002;-70
2022/09/08 02:02:52;;;;;;;6.20;2.53;;;;;;;;;;7388376;19;20351;-70
2022/09/08 02:05:17;;;;;;;5.03;2.08;;;;;;;;;;7389087;19;19999;-69
2022/09/08 02:07:43;;;;;;;3.90;2.33;;;;;;;;;;7390122;19;20006;-69
2022/09/08 02:10:08;;;;;;;3.50;1.92;;;;;;;;;;7390722;19;20028;-69
2022/09/08 02:12:34;;;;;;;4.82;2.35;;;;;;;;;;7386450;19;20009;-70
2022/09/08 02:14:59;;;;;;;6.07;2.72;;;;;;;;;;7387692;19;19999;-70
2022/09/08 02:17:27;;;;;;;4.50;2.20;;;;;;;;;;7389851;19;19999;-70
2022/09/08 02:19:53;;;;;;;6.50;2.00;;;;;;;;;;7388335;19;20321;-71
2022/09/08 02:22:18;;;;;;;3.15;2.17;;;;;;;;;;7388289;19;20006;-70
2022/09/08 02:24:44;;;;;;;4.07;2.17;;;;;;;;;;7387132;19;20013;-70
2022/09/08 02:27:10;;;;;;;4.45;2.38;;;;;;;;;;7385454;19;20010;-71
2022/09/08 02:29:35;;;;;;;6.72;2.47;;;;;;;;;;7388194;19;19998;-70
2022/09/08 02:32:01;;;;;;;4.55;2.72;;;;;;;;;;7383152;19;20010;-71
2022/09/08 02:34:26;;;;;;;3.45;2.08;;;;;;;;;;7383078;19;20527;-71
2022/09/08 02:36:51;;;;;;;7.10;2.58;;;;;;;;;;7382865;19;20309;-71
2022/09/08 02:39:19;;;;;;;7.45;2.70;;;;;;;;;;7382870;19;20005;-70
2022/09/08 02:41:45;;;;;;;3.05;2.33;;;;;;;;;;7383233;19;20027;-70
2022/09/08 02:44:14;;;;;;;3.25;2.38;;;;;;;;;;7387178;19;19999;-70
2022/09/08 02:46:41;;;;;;;3.60;2.08;;;;;;;;;;7388601;19;20520;-70
2022/09/08 02:49:08;;;;;;;4.18;2.67;;;;;;;;;;7388622;19;20078;-70
2022/09/08 02:51:33;;;;;;;4.90;2.45;;;;;;;;;;7387550;19;20006;-71
2022/09/08 02:53:58;;;;;;;4.25;2.53;;;;;;;;;;7387702;19;20472;-71
2022/09/08 02:56:24;;;;;;;5.53;2.85;;;;;;;;;;7386410;19;19999;-70
2022/09/08 02:58:50;;;;;;;5.07;2.90;;;;;;;;;;7388147;19;19998;-71
2022/09/08 03:01:16;;;;;;;4.68;2.70;;;;;;;;;;7386811;19;20468;-70
2022/09/08 03:03:41;;;;;;;4.50;2.35;;;;;;;;;;7385815;19;20022;-70
2022/09/08 03:06:07;;;;;;;4.20;2.45;;;;;;;;;;7388203;19;20003;-70
2022/09/08 03:08:33;;;;;;;4.20;2.60;;;;;;;;;;7387696;19;20003;-70
2022/09/08 03:11:00;;;;;;;4.20;2.80;;;;;;;;;;7386948;19;20003;-70
2022/09/08 03:13:31;;;;;;;3.92;2.35;;;;;;;;;;7385691;19;20029;-70
2022/09/08 03:15:57;;;;;;;6.60;2.97;;;;;;;;;;7387628;19;20518;-70
2022/09/08 03:18:23;;;;;;;4.53;2.63;;;;;;;;;;7386181;19;20003;-70
2022/09/08 03:21:05;;;;;;;5.03;2.90;;;;;;;;;;7385158;19;20388;-70
2022/09/08 03:23:31;;;;;;;6.15;3.05;;;;;;;;;;7383581;19;20367;-70
2022/09/08 03:26:01;;;;;;;5.40;2.75;;;;;;;;;;7387200;19;20461;-69
2022/09/08 03:28:27;;;;;;;5.20;3.13;;;;;;;;;;7387242;19;20005;-70
2022/09/08 03:30:52;;;;;;;4.70;2.70;;;;;;;;;;7385096;19;20359;-70
2022/09/08 03:33:18;;;;;;;5.53;2.67;;;;;;;;;;7387132;19;20062;-70
2022/09/08 03:35:44;;;;;;;6.70;2.80;;;;;;;;;;7386674;19;19998;-70
2022/09/08 03:38:09;;;;;;;4.80;2.92;;;;;;;;;;7397651;19;19999;-70
2022/09/08 03:40:38;;;;;;;5.15;3.05;;;;;;;;;;7393822;19;20031;-70
2022/09/08 03:43:06;;;;;;;4.78;3.03;;;;;;;;;;7389811;19;19999;-69
2022/09/08 03:45:31;;;;;;;4.43;2.53;;;;;;;;;;7397924;19;20005;-70
2022/09/08 03:47:56;;;;;;;5.10;2.55;;;;;;;;;;7394330;19;20007;-70
2022/09/08 03:50:23;;;;;;;6.47;3.33;;;;;;;;;;7392338;19;20012;-69
2022/09/08 03:52:48;;;;;;;4.70;2.63;;;;;;;;;;7394688;19;20088;-70
2022/09/08 03:55:13;;;;;;;5.00;2.72;;;;;;;;;;7398617;19;19999;-70
2022/09/08 03:57:39;;;;;;;4.72;2.70;;;;;;;;;;7394401;19;20126;-70
2022/09/08 04:00:08;;;;;;;4.00;2.30;;;;;;;;;;7394274;19;20026;-70
2022/09/08 04:02:33;;;;;;;5.63;3.00;;;;;;;;;;7391572;19;20463;-69
2022/09/08 04:04:59;;;;;;;6.95;3.13;;;;;;;;;;7392095;19;20010;-70
2022/09/08 04:07:27;;;;;;;3.60;2.35;;;;;;;;;;7392587;19;19998;-70
2022/09/08 04:09:53;;;;;;;7.57;3.45;;;;;;;;;;7394051;19;20129;-70
2022/09/08 04:12:19;;;;;;;5.65;2.97;;;;;;;;;;7391839;19;20006;-69
2022/09/08 04:14:46;;;;;;;4.78;2.78;;;;;;;;;;7391606;19;20120;-69
2022/09/08 04:17:11;;;;;;;5.88;2.50;;;;;;;;;;7394456;19;20293;-70
2022/09/08 04:19:37;;;;;;;3.20;2.17;;;;;;;;;;7394069;19;20006;-70
2022/09/08 04:22:03;;;;;;;5.55;2.30;;;;;;;;;;7390320;19;20002;-71
2022/09/08 04:24:28;;;;;;;4.75;2.47;;;;;;;;;;7393174;19;20002;-69
2022/09/08 04:26:53;;;;;;;2.78;1.88;;;;;;;;;;7394055;19;20002;-69
2022/09/08 04:29:19;;;;;;;5.32;1.90;;;;;;;;;;7393980;19;20460;-69
2022/09/08 04:31:46;;;;;;;2.90;1.77;;;;;;;;;;7394000;19;20739;-68
2022/09/08 04:34:13;;;;;;;2.50;1.60;;;;;;;;;;7396638;19;20544;-68
2022/09/08 04:36:40;;;;;;;5.03;2.08;;;;;;;;;;7395319;19;20003;-69
2022/09/08 04:39:05;;;;;;;6.15;1.60;;;;;;;;;;7396338;19;20040;-68
2022/09/08 04:41:31;;;;;;;2.65;1.75;;;;;;;;;;7393864;19;20690;-70
2022/09/08 04:44:02;;;;;;;2.30;1.55;;;;;;;;;;7393635;19;19998;-70
2022/09/08 04:46:28;;;;;;;1.50;1.40;;;;;;;;;;7395383;19;20499;-70
2022/09/08 04:48:54;;;;;;;5.32;2.03;;;;;;;;;;7391287;19;20021;-69
2022/09/08 04:51:20;;;;;;;3.03;1.65;;;;;;;;;;7393748;19;20382;-70
2022/09/08 04:53:47;;;;;;;1.40;1.30;;;;;;;;;;7394070;19;20001;-70
2022/09/08 04:56:15;;;;;;;3.42;1.60;;;;;;;;;;7393847;19;20007;-71
2022/09/08 04:58:42;;;;;;;5.97;2.15;;;;;;;;;;7394781;19;20010;-69
2022/09/08 05:01:19;;;;;;;3.03;1.90;;;;;;;;;;7393714;19;19998;-70
2022/09/08 05:03:45;;;;;;;3.03;1.83;;;;;;;;;;7387618;19;20037;-70
2022/09/08 05:06:14;;;;;;;1.98;1.48;;;;;;;;;;7392975;19;19998;-70
2022/09/08 05:08:41;;;;;;;3.00;1.73;;;;;;;;;;7394249;19;19995;-69
2022/09/08 05:11:07;;;;;;;2.70;1.75;;;;;;;;;;7392145;19;19999;-70
2022/09/08 05:13:32;;;;;;;3.58;1.73;;;;;;;;;;7391654;19;19997;-70
2022/09/08 05:16:06;;;;;;;2.33;1.70;;;;;;;;;;7391813;19;20056;-71
2022/09/08 05:18:33;;;;;;;3.00;1.98;;;;;;;;;;7393589;19;19999;-69
2022/09/08 05:20:58;;;;;;;2.90;1.90;;;;;;;;;;7392713;19;20015;-70
2022/09/08 05:23:24;;;;;;;3.65;1.90;;;;;;;;;;7390541;19;20339;-70
2022/09/08 05:25:59;;;;;;;2.78;1.85;;;;;;;;;;7394086;19;20392;-70
2022/09/08 05:28:26;;;;;;;5.95;1.95;;;;;;;;;;7395052;19;20011;-70
2022/09/08 05:30:52;;;;;;;3.30;1.90;;;;;;;;;;7390715;19;20050;-70
2022/09/08 05:33:17;;;;;;;4.38;1.67;;;;;;;;;;7392010;19;20513;-70
2022/09/08 05:35:42;;;;;;;2.30;1.55;;;;;;;;;;7393018;19;19991;-70
2022/09/08 05:38:08;;;;;;;2.72;1.88;;;;;;;;;;7392160;19;20047;-70
2022/09/08 05:40:36;;;;;;;3.22;2.30;;;;;;;;;;7391424;19;20034;-70
2022/09/08 05:43:01;;;;;;;2.55;1.80;;;;;;;;;;7390391;19;20480;-70
2022/09/08 05:45:27;;;;;;;2.90;2.00;;;;;;;;;;7393661;19;19986;-70
2022/09/08 05:47:52;;;;;;;2.60;2.00;;;;;;;;;;7393532;19;20010;-70
2022/09/08 05:50:18;;;;;;;3.00;1.80;;;;;;;;;;7395376;19;20006;-70
2022/09/08 05:52:43;;;;;;;5.90;2.38;;;;;;;;;;7392081;19;19995;-70
2022/09/08 05:55:09;;;;;;;5.25;2.10;;;;;;;;;;7392431;19;19990;-70
2022/09/08 05:57:35;;;;;;;3.13;2.00;;;;;;;;;;7394054;19;20028;-70
2022/09/08 06:00:02;;;;;;;2.45;1.77;;;;;;;;;;7388340;19;20007;-70
2022/09/08 06:02:27;;;;;;;5.25;2.40;;;;;;;;;;7382584;19;20679;-70
2022/09/08 06:04:53;;;;;;;3.63;2.08;;;;;;;;;;7392024;19;20015;-70
2022/09/08 06:07:18;;;;;;;3.13;2.30;;;;;;;;;;7385765;19;20086;-70
2022/09/08 06:09:43;;;;;;;2.72;1.75;;;;;;;;;;7387444;19;20011;-70
2022/09/08 06:12:09;;;;;;;3.55;2.00;;;;;;;;;;7385869;19;20012;-70
2022/09/08 06:14:34;;;;;;;4.50;2.33;;;;;;;;;;7387100;19;20004;-69
2022/09/08 06:17:00;;;;;;;3.50;2.40;;;;;;;;;;7388836;19;20089;-69
2022/09/08 06:19:25;;;;;;;4.13;1.95;;;;;;;;;;7388496;19;19998;-69
2022/09/08 06:21:51;;;;;;;3.75;2.10;;;;;;;;;;7386660;19;20035;-69
2022/09/08 06:24:16;;;;;;;5.00;2.30;;;;;;;;;;7392675;19;20015;-69
2022/09/08 06:27:00;;;;;;;3.35;1.83;;;;;;;;;;7390971;19;19994;-69
2022/09/08 06:29:47;;;;;;;3.72;1.83;;;;;;;;;;7392697;19;20003;-70
2022/09/08 06:32:29;;;;;;;4.05;2.15;;;;;;;;;;7391773;19;20009;-70
2022/09/08 06:35:04;;;;;;;3.47;2.20;;;;;;;;;;7390038;19;20086;-69
2022/09/08 06:37:32;;;;;;;4.90;2.10;;;;;;;;;;7390435;19;19995;-70
2022/09/08 06:40:04;;;;;;;3.30;2.17;;;;;;;;;;7392402;19;20025;-70
2022/09/08 06:42:37;;;;;;;6.90;1.92;;;;;;;;;;7389279;19;20350;-69
2022/09/08 06:45:04;;;;;;;1.98;1.63;;;;;;;;;;7390651;19;20028;-70
2022/09/08 06:47:55;;;;;;;2.63;1.55;;;;;;;;;;7392036;19;19998;-69
2022/09/08 06:50:21;;;;;;;3.83;1.83;;;;;;;;;;7392426;19;20006;-70
2022/09/08 06:52:51;;;;;;;3.70;1.65;;;;;;;;;;7389775;19;20030;-70
2022/09/08 06:55:38;;;;;;;3.60;1.90;;;;;;;;;;7390184;19;19999;-70
2022/09/08 06:58:03;;;;;;;2.55;1.90;;;;;;;;;;7392065;19;19990;-70
2022/09/08 07:00:44;;;;;;;2.33;1.67;;;;;;;;;;7386760;19;20012;-70
2022/09/08 07:03:19;;;;;;;4.00;2.28;;;;;;;;;;7387041;19;20256;-70
2022/09/08 07:06:17;;;;;;;3.38;1.83;;;;;;;;;;7391677;19;20377;-69
2022/09/08 07:08:56;;;;;;;3.80;2.33;;;;;;;;;;7389197;19;20019;-70
2022/09/08 07:11:37;;;;;;;4.07;1.85;;;;;;;;;;7390326;19;20027;-69
2022/09/08 07:14:33;;;;;;;4.75;2.13;;;;;;;;;;7399310;19;19998;-70
2022/09/08 07:17:21;;;;;;;1.55;1.38;;;;;;;;;;7397019;19;20092;-70
2022/09/08 07:19:52;;;;;;;2.88;1.65;;;;;;;;;;7399092;19;20018;-68
2022/09/08 07:22:35;;;;;;;2.80;1.63;;;;;;;;;;7394111;19;19998;-68
2022/09/08 07:25:21;;;;;;;2.78;1.38;;;;;;;;;;7396858;19;20032;-69
2022/09/08 07:27:52;;;;;;;2.28;1.45;;;;;;;;;;7398139;19;19999;-69
2022/09/08 07:30:18;;;;;;;2.05;1.35;;;;;;;;;;7394068;19;19995;-70
2022/09/08 07:32:53;;;;;;;1.92;1.60;;;;;;;;;;7396549;19;20463;-70
2022/09/08 07:35:42;;;;;;;1.20;1.10;;;;;;;;;;7399060;19;19999;-69
2022/09/08 07:38:21;;;;;;;1.48;1.13;;;;;;;;;;7397971;19;19991;-70
2022/09/08 07:40:51;;;;;;;2.45;1.33;;;;;;;;;;7396344;19;20003;-70
2022/09/08 07:43:17;;;;;;;6.80;1.33;;;;;;;;;;7395743;19;20381;-70
2022/09/08 07:45:48;;;;;;;1.25;1.15;;;;;;;;;;7398523;19;20227;-68
2022/09/08 07:48:38;;;;;;;1.67;1.20;;;;;;;;;;7395788;19;19991;-68
2022/09/08 07:51:15;;;;;;;3.75;1.17;;;;;;;;;;7396704;19;20471;-68
2022/09/08 07:54:04;;;;;;;2.33;1.60;;;;;;;;;;7396653;19;20464;-70
2022/09/08 07:56:42;;;;;;;1.10;0.90;;;;;;;;;;7394291;19;19999;-70
2022/09/08 08:03:09;;;;;;;1.30;1.20;;;;;;;;;;7395633;19;19997;-71
2022/09/08 08:06:02;;;;;;;1.95;1.15;;;;;;;;;;7391200;19;20026;-70
2022/09/08 08:11:58;;;;;;;1.67;0.90;;;;;;;;;;7281145;19;20025;-70
2022/09/08 08:14:27;;;;;;;1.30;1.08;;;;;;;;;;7393005;19;20006;-70
2022/09/08 08:17:16;;;;;;;1.07;1.03;;;;;;;;;;7392392;19;21163;-69
2022/09/08 08:19:46;;;;;;;1.13;0.85;;;;;;;;;;7393628;19;20487;-69
2022/09/08 08:22:27;;;;;;;1.23;0.75;;;;;;;;;;7390488;19;19999;-68
2022/09/08 08:25:21;;;;;;;0.95;0.88;;;;;;;;;;7393788;19;19999;-68
2022/09/08 08:28:07;;;;;;;0.80;0.75;;;;;;;;;;7390386;19;20517;-69
2022/09/08 08:30:39;;;;;;;1.60;1.13;;;;;;;;;;7392730;19;20005;-70
2022/09/08 08:33:17;;;;;;;0.90;0.90;;;;;;;;;;7390628;19;19995;-69
2022/09/08 08:35:50;;;;;;;0.73;0.73;;;;;;;;;;7393468;19;20003;-69
2022/09/08 08:38:21;;;;;;;0.95;0.90;;;;;;;;;;7392506;19;19998;-69
2022/09/08 08:40:59;;;;;;;2.67;0.90;;;;;;;;;;7392643;19;20432;-69
2022/09/08 08:43:24;;;;;;;0.95;0.88;;;;;;;;;;7391916;19;19999;-69
2022/09/08 08:46:20;;;;;;;1.27;0.77;;;;;;;;;;7395030;19;20008;-69
2022/09/08 08:49:01;;;;;;;0.82;0.82;;;;;;;;;;7391097;19;19998;-69
2022/09/08 08:51:36;;;;;;;0.70;0.70;;;;;;;;;;7393136;19;20008;-69
2022/09/08 08:54:41;;;;;;;1.40;0.77;;;;;;;;;;7390980;19;20383;-68
2022/09/08 08:57:36;;;;;;;0.40;0.40;;;;;;;;;;7393304;19;20030;-68
2022/09/08 09:00:14;;;;;;;0.80;0.80;;;;;;;;;;7388665;19;19990;-68
2022/09/08 09:02:57;;;;;;;0.65;0.65;;;;;;;;;;7389878;19;20009;-68
2022/09/08 09:05:47;;;;;;;0.70;0.70;;;;;;;;;;7391379;19;20023;-68
2022/09/08 09:08:33;;;;;;;0.60;0.60;;;;;;;;;;7380811;19;20011;-68
2022/09/08 09:11:07;;;;;;;0.63;0.63;;;;;;;;;;7392596;19;20002;-69
2022/09/08 09:13:59;;;;;;;1.02;0.88;;;;;;;;;;7392909;19;20001;-68
2022/09/08 09:16:43;;;;;;;0.57;0.57;;;;;;;;;;7391345;19;20021;-68
2022/09/08 09:19:16;;;;;;;0.70;0.70;;;;;;;;;;7393136;19;20074;-69
2022/09/08 09:22:04;;;;;;;0.60;0.60;;;;;;;;;;7392350;19;20357;-70
2022/09/08 09:24:56;;;;;;;0.70;0.70;;;;;;;;;;7385380;19;20021;-69
2022/09/08 09:27:34;;;;;;;0.77;0.77;;;;;;;;;;7392311;19;19995;-68
2022/09/08 09:30:19;;;;;;;0.55;0.55;;;;;;;;;;7393006;19;20468;-68
2022/09/08 09:33:00;;;;;;;1.50;0.82;;;;;;;;;;7380468;19;20471;-69
2022/09/08 09:35:46;;;;;;;1.20;0.70;;;;;;;;;;7389815;19;20005;-69
2022/09/08 09:38:32;;;;;;;0.50;0.50;;;;;;;;;;7386109;19;20051;-69
2022/09/08 09:41:32;;;;;;;1.23;0.57;;;;;;;;;;7392329;19;20029;-69
2022/09/08 09:44:09;;;;;;;0.50;0.50;;;;;;;;;;7390425;19;20082;-69
2022/09/08 09:46:59;;;;;;;1.27;0.80;;;;;;;;;;7393163;19;20078;-70
2022/09/08 09:49:46;;;;;;;0.60;0.60;;;;;;;;;;7392790;19;20007;-69
2022/09/08 09:52:29;;;;;;;0.60;0.55;;;;;;;;;;7389287;19;20007;-69
2022/09/08 09:55:13;;;;;;;0.47;0.47;;;;;;;;;;7391838;19;19994;-69
2022/09/08 09:58:29;;;;;;;0.88;0.68;;;;;;;;;;7390155;19;20017;-69
2022/09/08 10:01:16;;;;;;;0.70;0.50;;;;;;;;;;7387100;19;20007;-69
2022/09/08 10:04:24;;;;;;;0.50;0.50;;;;;;;;;;7388224;19;20023;-69
2022/09/08 10:07:17;;;;;;;0.50;0.50;;;;;;;;;;7388902;19;20003;-69
2022/09/08 10:10:19;;;;;;;0.47;0.47;;;;;;;;;;7389596;19;20700;-69
2022/09/08 10:13:08;;;;;;;0.52;0.52;;;;;;;;;;7386909;19;20315;-70
2022/09/08 10:16:05;;;;;;;0.22;0.22;;;;;;;;;;7390164;19;19995;-70
2022/09/08 10:18:40;;;;;;;0.57;0.57;;;;;;;;;;7390586;19;19999;-69
2022/09/08 10:21:33;;;;;;;0.70;0.70;;;;;;;;;;7386443;19;20066;-70
2022/09/08 10:24:20;;;;;;;0.38;0.38;;;;;;;;;;7389680;19;20003;-70
2022/09/08 10:27:01;;;;;;;0.40;0.40;;;;;;;;;;7388552;19;20074;-69
2022/09/08 10:29:49;;;;;;;0.47;0.45;;;;;;;;;;7388688;19;20361;-70
2022/09/08 10:32:29;;;;;;;0.43;0.43;;;;;;;;;;7388874;19;20070;-69
2022/09/08 10:35:03;;;;;;;0.40;0.40;;;;;;;;;;7387872;19;20009;-69
2022/09/08 10:37:43;;;;;;;0.50;0.50;;;;;;;;;;7387294;19;20002;-69
2022/09/08 10:40:37;;;;;;;1.40;0.80;;;;;;;;;;7389360;19;20006;-69
2022/09/08 10:43:37;;;;;;;0.43;0.35;;;;;;;;;;7386835;19;20008;-69
2022/09/08 10:46:46;;;;;;;0.17;0.17;;;;;;;;;;7386940;19;20007;-71
2022/09/08 10:49:33;;;;;;;2.67;0.80;;;;;;;;;;7385394;19;20013;-69
2022/09/08 10:52:12;;;;;;;0.60;0.60;;;;;;;;;;7381444;19;20077;-69
2022/09/08 10:54:58;;;;;;;0.40;0.40;;;;;;;;;;7385958;19;20014;-69
2022/09/08 10:57:51;;;;;;;0.65;0.45;;;;;;;;;;7389567;19;20007;-69
2022/09/08 11:00:22;;;;;;;0.60;0.60;;;;;;;;;;7386913;19;20003;-68
2022/09/08 11:03:24;;;;;;;0.52;0.45;;;;;;;;;;7385083;19;20527;-74
2022/09/08 11:06:06;;;;;;;0.40;0.40;;;;;;;;;;7391979;19;20011;-74
2022/09/08 11:08:47;;;;;;;0.50;0.50;;;;;;;;;;7389369;19;20002;-74
2022/09/08 11:12:03;;;;;;;0.50;0.50;;;;;;;;;;7390247;19;20003;-73
2022/09/08 11:14:44;;;;;;;0.40;0.40;;;;;;;;;;7389609;19;20007;-75
2022/09/08 11:17:24;;;;;;;0.93;0.85;;;;;;;;;;7381025;19;20384;-73
2022/09/08 11:19:50;;;;;;;0.60;0.60;;;;;;;;;;7386400;19;20440;-73
2022/09/08 11:22:29;;;;;;;0.68;0.50;;;;;;;;;;7383608;19;20029;-73
2022/09/08 11:25:17;;;;;;;0.20;0.20;;;;;;;;;;7382930;19;20564;-73
2022/09/08 11:28:05;;;;;;;0.85;0.40;;;;;;;;;;7384885;19;20011;-74
2022/09/08 11:30:57;;;;;;;0.75;0.43;;;;;;;;;;7384204;19;20010;-73
2022/09/08 11:33:37;;;;;;;0.47;0.40;;;;;;;;;;7384854;19;20003;-73
2022/09/08 11:36:08;;;;;;;0.70;0.70;;;;;;;;;;7384860;19;20006;-71
2022/09/08 11:38:37;;;;;;;0.45;0.40;;;;;;;;;;7384452;19;20011;-73
2022/09/08 11:41:26;;;;;;;0.80;0.40;;;;;;;;;;7383988;19;20006;-73
2022/09/08 11:44:03;;;;;;;1.73;0.70;;;;;;;;;;7383377;19;20463;-73
2022/09/08 11:47:01;;;;;;;0.73;0.68;;;;;;;;;;7385878;19;20495;-73
2022/09/08 11:49:54;;;;;;;0.63;0.60;;;;;;;;;;7384773;19;20002;-73
2022/09/08 11:52:38;;;;;;;1.15;0.60;;;;;;;;;;7383247;19;20006;-75
2022/09/08 11:55:24;;;;;;;0.70;0.70;;;;;;;;;;7382698;19;20003;-74
2022/09/08 11:58:23;;;;;;;0.52;0.52;;;;;;;;;;7387309;19;20007;-73
2022/09/08 12:01:24;;;;;;;1.02;0.90;;;;;;;;;;7391602;19;19998;-73
2022/09/08 12:04:11;;;;;;;0.93;0.80;;;;;;;;;;7389787;19;20007;-72
2022/09/08 12:06:52;;;;;;;0.80;0.80;;;;;;;;;;7392764;19;20089;-71
2022/09/08 12:09:17;;;;;;;1.05;0.82;;;;;;;;;;7391176;19;20009;-71
2022/09/08 12:12:09;;;;;;;0.60;0.60;;;;;;;;;;7390320;19;19999;-70
2022/09/08 12:14:49;;;;;;;0.70;0.70;;;;;;;;;;7391165;19;20065;-70
2022/09/08 12:17:43;;;;;;;0.60;0.60;;;;;;;;;;7391252;19;20002;-72
2022/09/08 12:20:27;;;;;;;0.95;0.55;;;;;;;;;;7393059;19;19994;-71
2022/09/08 12:23:09;;;;;;;1.35;0.73;;;;;;;;;;7389857;19;19994;-71
2022/09/08 12:25:47;;;;;;;1.35;0.73;;;;;;;;;;7393861;19;19999;-72
2022/09/08 12:28:51;;;;;;;0.50;0.50;;;;;;;;;;7395502;19;20070;-73
2022/09/08 12:31:22;;;;;;;0.82;0.68;;;;;;;;;;7384414;19;20001;-72
2022/09/08 12:33:55;;;;;;;0.73;0.73;;;;;;;;;;7391172;19;20002;-72
2022/09/08 12:36:40;;;;;;;0.73;0.70;;;;;;;;;;7393023;19;20009;-72
2022/09/08 12:39:23;;;;;;;0.40;0.40;;;;;;;;;;7389990;19;20822;-72
2022/09/08 12:42:15;;;;;;;0.73;0.73;;;;;;;;;;7390706;19;20479;-71
2022/09/08 12:45:18;;;;;;;0.50;0.50;;;;;;;;;;7394109;19;20013;-72
2022/09/08 12:48:07;;;;;;;0.43;0.43;;;;;;;;;;7395055;19;20094;-72
2022/09/08 12:51:09;;;;;;;0.87;0.83;;;;;;;;;;7392869;19;20010;-71
2022/09/08 12:54:18;;;;;;;1.20;0.60;;;;;;;;;;7392084;19;20459;-73
2022/09/08 12:57:08;;;;;;;0.75;0.55;;;;;;;;;;7393128;19;20022;-71
2022/09/08 12:59:33;;;;;;;;;;;;;;;;;;7392525;19;19999;-72
2022/09/08 13:02:05;;;;;;;1.27;0.70;;;;;;;;;;7391215;19;20328;-72
2022/09/08 13:04:42;;;;;;;3.45;0.60;;;;;;;;;;7396184;19;20016;-72
2022/09/08 13:07:27;;;;;;;1.25;0.73;;;;;;;;;;7394160;19;20007;-71
2022/09/08 13:10:13;;;;;;;0.95;0.63;;;;;;;;;;7390894;19;20015;-73
2022/09/08 13:12:38;;;;;;;3.88;0.80;;;;;;;;;;7394217;19;20394;-73
2022/09/08 13:15:14;;;;;;;1.23;0.60;;;;;;;;;;7393954;19;19994;-72
2022/09/08 13:17:48;;;;;;;2.65;1.00;;;;;;;;;;7391391;19;20070;-72
2022/09/08 13:20:40;;;;;;;1.13;0.80;;;;;;;;;;7394334;19;20036;-72
2022/09/08 13:23:12;;;;;;;1.25;0.73;;;;;;;;;;7390449;19;20006;-72
2022/09/08 13:25:50;;;;;;;0.35;0.35;;;;;;;;;;7395199;19;20013;-72
2022/09/08 13:29:03;;;;;;;0.70;0.70;;;;;;;;;;7393124;19;19999;-73
2022/09/08 13:32:00;;;;;;;1.08;0.55;;;;;;;;;;7394834;19;20025;-72
2022/09/08 13:34:55;;;;;;;1.83;0.77;;;;;;;;;;7392854;19;20007;-72
2022/09/08 13:37:38;;;;;;;1.48;0.80;;;;;;;;;;7393952;19;20334;-74
2022/09/08 13:40:25;;;;;;;0.95;0.50;;;;;;;;;;7395577;19;20002;-72
2022/09/08 13:43:09;;;;;;;1.35;0.60;;;;;;;;;;7390568;19;19999;-70
2022/09/08 13:45:47;;;;;;;0.98;0.60;;;;;;;;;;7393447;19;20036;-73
2022/09/08 13:48:27;;;;;;;0.60;0.60;;;;;;;;;;7394600;19;20006;-72
2022/09/08 13:51:20;;;;;;;1.20;0.57;;;;;;;;;;7393023;19;20007;-71
2022/09/08 13:53:54;;;;;;;1.10;0.55;;;;;;;;;;7393551;19;19998;-72
2022/09/08 13:56:50;;;;;;;0.75;0.55;;;;;;;;;;7394202;19;20007;-72
2022/09/08 13:59:27;;;;;;;2.40;0.40;;;;;;;;;;7391487;19;20002;-72
2022/09/08 14:01:53;;;;;;;1.15;0.55;;;;;;;;;;7391236;19;20009;-71
2022/09/08 14:04:27;;;;;;;4.78;0.75;;;;;;;;;;7386570;19;19998;-72
2022/09/08 14:06:53;;;;;;;1.33;0.93;;;;;;;;;;7391953;19;20522;-73
2022/09/08 14:09:21;;;;;;;1.33;0.50;;;;;;;;;;7391449;19;20010;-72
2022/09/08 14:12:14;;;;;;;0.40;0.40;;;;;;;;;;7388372;19;20802;-72
2022/09/08 14:15:00;;;;;;;0.60;0.60;;;;;;;;;;7390453;19;19998;-72
2022/09/08 14:17:44;;;;;;;0.88;0.70;;;;;;;;;;7389607;19;20019;-71
2022/09/08 14:20:18;;;;;;;1.00;0.60;;;;;;;;;;7389869;19;20003;-71
2022/09/08 14:22:54;;;;;;;1.48;0.63;;;;;;;;;;7388949;19;19998;-71
2022/09/08 14:25:37;;;;;;;0.88;0.88;;;;;;;;;;7390619;19;20005;-71
2022/09/08 14:28:08;;;;;;;1.33;0.70;;;;;;;;;;7391922;19;20034;-70
2022/09/08 14:30:42;;;;;;;0.55;0.50;;;;;;;;;;7389052;19;20022;-73
2022/09/08 14:33:27;;;;;;;0.77;0.60;;;;;;;;;;7389477;19;20006;-72
2022/09/08 14:36:11;;;;;;;0.40;0.40;;;;;;;;;;7392026;19;20014;-72
2022/09/08 14:38:53;;;;;;;0.75;0.70;;;;;;;;;;7388746;19;19998;-71
2022/09/08 14:41:21;;;;;;;0.90;0.43;;;;;;;;;;7387658;19;20459;-71
2022/09/08 14:43:47;;;;;;;0.68;0.68;;;;;;;;;;7387403;19;20052;-71
2022/09/08 14:46:13;;;;;;;0.90;0.73;;;;;;;;;;7386809;19;19999;-71
2022/09/08 14:48:57;;;;;;;2.00;0.88;;;;;;;;;;7389187;19;20252;-73
2022/09/08 14:51:37;;;;;;;1.45;0.85;;;;;;;;;;7388439;19;20114;-72
2022/09/08 14:54:09;;;;;;;1.25;0.70;;;;;;;;;;7391220;19;19995;-70
2022/09/08 14:56:40;;;;;;;5.35;0.95;;;;;;;;;;7391232;19;20010;-72
2022/09/08 14:59:26;;;;;;;0.52;0.50;;;;;;;;;;7391408;19;19998;-72
2022/09/08 15:02:00;;;;;;;0.47;0.38;;;;;;;;;;7386882;19;20006;-72
2022/09/08 15:04:28;;;;;;;1.52;0.73;;;;;;;;;;7388219;19;19999;-72
2022/09/08 15:06:58;;;;;;;1.10;0.63;;;;;;;;;;7388377;19;19999;-72
2022/09/08 15:09:23;;;;;;;1.03;0.53;;;;;;;;;;7387078;19;20070;-72
2022/09/08 15:11:51;;;;;;;0.40;0.35;;;;;;;;;;7386733;19;20020;-71
2022/09/08 15:14:31;;;;;;;0.90;0.60;;;;;;;;;;7388916;19;19999;-71
2022/09/08 15:17:06;;;;;;;1.20;0.68;;;;;;;;;;7388137;19;20066;-70
2022/09/08 15:19:56;;;;;;;0.70;0.32;;;;;;;;;;7388729;19;20002;-72
2022/09/08 15:22:36;;;;;;;0.47;0.47;;;;;;;;;;7386217;19;20357;-72
2022/09/08 15:25:31;;;;;;;1.10;0.70;;;;;;;;;;7388613;19;20110;-72
2022/09/08 15:27:58;;;;;;;0.57;0.43;;;;;;;;;;7388484;19;20483;-72
2022/09/08 15:30:25;;;;;;;0.75;0.47;;;;;;;;;;7388461;19;20026;-71
2022/09/08 15:33:15;;;;;;;2.20;0.40;;;;;;;;;;7391061;19;20003;-71
2022/09/08 15:35:42;;;;;;;0.73;0.43;;;;;;;;;;7395061;19;20025;-71
2022/09/08 15:38:11;;;;;;;0.32;0.32;;;;;;;;;;7395374;19;20003;-71
2022/09/08 15:40:36;;;;;;;1.60;0.63;;;;;;;;;;7394893;19;20019;-71
2022/09/08 15:43:07;;;;;;;0.50;0.50;;;;;;;;;;7392839;19;20366;-71
2022/09/08 15:45:59;;;;;;;0.98;0.40;;;;;;;;;;7398657;19;20005;-71